Time;durP1;ratioP1;P1;durP2;ratioP2;P2;SDS_P1;SDS_P2;PMS_P1;PMS_P2;Temp;Humidity;BMP_temperature;BMP_pressure;BME280_temperature;BME280_humidity;BME280_pressure;Samples;Min_cycle;Max_cycle;Signal;HPM_P1;HPM_P2
2021/12/18 00:02:14;;;;;;;;;;;4.00;99.90;;;;;;4963135;28;19926;-80
2021/12/18 00:04:43;;;;;;;;;;;4.00;99.90;;;;;;4984072;28;19933;-80
2021/12/18 00:07:15;;;;;;;;;;;4.00;99.90;;;;;;4967757;28;20414;-81
2021/12/18 00:09:46;;;;;;;;;;;4.00;99.90;;;;;;4982446;28;20011;-81
2021/12/18 00:12:21;;;;;;;;;;;4.00;99.90;;;;;;4968139;28;19926;-81
2021/12/18 00:14:50;;;;;;;;;;;4.00;99.90;;;;;;4963313;28;19942;-81
2021/12/18 00:17:17;;;;;;;;;;;4.00;99.90;;;;;;4975374;28;19942;-81
2021/12/18 00:19:50;;;;;;;;;;;3.90;99.90;;;;;;4974271;28;19926;-81
2021/12/18 00:22:25;;;;;;;;;;;4.00;99.90;;;;;;4967366;28;19926;-81
2021/12/18 00:24:54;;;;;;;;;;;3.90;99.90;;;;;;4968244;28;20751;-79
2021/12/18 00:27:22;;;;;;;;;;;3.90;99.90;;;;;;4983112;28;20016;-78
2021/12/18 00:29:52;;;;;;;;;;;3.90;99.90;;;;;;4974044;28;20351;-79
2021/12/18 00:32:20;;;;;;;;;;;3.90;99.90;;;;;;4981618;28;20584;-79
2021/12/18 00:34:47;;;;;;;;;;;3.90;99.90;;;;;;4966912;28;19935;-79
2021/12/18 00:37:14;;;;;;;;;;;3.90;99.90;;;;;;4970100;28;19930;-81
2021/12/18 00:39:48;;;;;;;;;;;3.90;99.90;;;;;;4973280;28;19926;-81
2021/12/18 00:42:26;;;;;;;;;;;3.90;99.90;;;;;;4966408;28;20379;-81
2021/12/18 00:44:56;;;;;;;;;;;3.90;99.90;;;;;;4971018;28;20309;-81
2021/12/18 00:47:23;;;;;;;;;;;3.90;99.90;;;;;;4968729;28;19934;-81
2021/12/18 00:49:53;;;;;;;;;;;3.90;99.90;;;;;;4969450;28;19926;-80
2021/12/18 00:52:26;;;;;;;;;;;3.90;99.90;;;;;;4969936;28;19965;-79
2021/12/18 00:54:59;;;;;;;;;;;3.90;99.90;;;;;;4987731;28;19926;-78
2021/12/18 00:57:27;;;;;;;;;;;3.80;99.90;;;;;;4959478;28;20058;-79
2021/12/18 00:59:59;;;;;;;;;;;3.80;99.90;;;;;;4967442;28;19972;-79
2021/12/18 01:02:28;;;;;;;;;;;3.80;99.90;;;;;;4964050;28;19940;-81
2021/12/18 01:04:58;;;;;;;;;;;3.80;99.90;;;;;;4964158;28;19930;-81
2021/12/18 01:07:27;;;;;;;;;;;3.80;99.90;;;;;;4963256;28;19926;-81
2021/12/18 01:10:05;;;;;;;;;;;3.80;99.90;;;;;;4969607;28;19929;-81
2021/12/18 01:12:38;;;;;;;;;;;3.80;99.90;;;;;;4964519;28;19932;-81
2021/12/18 01:15:17;;;;;;;;;;;3.80;99.90;;;;;;4969467;28;20024;-81
2021/12/18 01:23:24;;;;;;;;;;;3.80;99.90;;;;;;4977834;28;19922;-81
2021/12/18 01:25:55;;;;;;;;;;;3.80;99.90;;;;;;4965283;28;19949;-81
2021/12/18 01:28:24;;;;;;;;;;;3.80;99.90;;;;;;4966570;28;20010;-81
2021/12/18 01:31:00;;;;;;;;;;;3.80;99.90;;;;;;4968321;28;19926;-81
2021/12/18 01:33:27;;;;;;;;;;;3.80;99.90;;;;;;4965920;28;19942;-81
2021/12/18 01:35:56;;;;;;;;;;;3.80;99.90;;;;;;4974505;28;20015;-81
2021/12/18 01:38:24;;;;;;;;;;;3.70;99.90;;;;;;4964649;28;19926;-81
2021/12/18 01:40:51;;;;;;;;;;;3.70;99.90;;;;;;4967879;28;19936;-81
2021/12/18 01:46:30;;;;;;;;;;;3.70;99.90;;;;;;4968951;28;19937;-79
2021/12/18 01:52:01;;;;;;;;;;;3.70;99.90;;;;;;4976799;28;19926;-79
2021/12/18 01:54:28;;;;;;;;;;;3.70;99.90;;;;;;4961702;28;19930;-79
2021/12/18 01:56:59;;;;;;;;;;;3.70;99.90;;;;;;4961538;28;20429;-78
2021/12/18 01:59:34;;;;;;;;;;;3.70;99.90;;;;;;4963097;28;20004;-79
2021/12/18 02:02:02;;;;;;;;;;;3.70;99.90;;;;;;4979933;28;19941;-79
2021/12/18 02:04:29;;;;;;;;;;;3.70;99.90;;;;;;4970421;28;19936;-78
2021/12/18 02:06:59;;;;;;;;;;;3.70;99.90;;;;;;4959525;28;19938;-79
2021/12/18 02:09:33;;;;;;;;;;;3.70;99.90;;;;;;4983389;28;19930;-79
2021/12/18 02:12:00;;;;;;;;;;;3.70;99.90;;;;;;4977262;28;19937;-79
2021/12/18 02:19:32;;;;;;;;;;;3.70;99.90;;;;;;4961095;28;19938;-79
2021/12/18 02:20:24;;;;;;;;;;;3.60;99.90;;;;;;4976726;28;19925;-79
2021/12/18 02:22:55;;;;;;;;;;;3.60;99.90;;;;;;4965766;28;20016;-79
2021/12/18 02:25:24;;;;;;;;;;;3.60;99.90;;;;;;4961122;28;19930;-79
2021/12/18 02:27:52;;;;;;;;;;;3.70;99.90;;;;;;4961372;28;19934;-79
2021/12/18 02:30:21;;;;;;;;;;;3.60;99.90;;;;;;4989520;28;19945;-79
2021/12/18 02:32:48;;;;;;;;;;;3.60;99.90;;;;;;4994165;28;19926;-79
2021/12/18 02:35:26;;;;;;;;;;;3.60;99.90;;;;;;4963701;28;19927;-79
2021/12/18 02:38:02;;;;;;;;;;;3.60;99.90;;;;;;4962524;28;19926;-79
2021/12/18 02:40:53;;;;;;;;;;;3.60;99.90;;;;;;4965134;28;20383;-79
2021/12/18 02:43:24;;;;;;;;;;;3.60;99.90;;;;;;4966439;28;19945;-79
2021/12/18 02:45:59;;;;;;;;;;;3.60;99.90;;;;;;4963866;28;19972;-79
2021/12/18 02:48:27;;;;;;;;;;;3.60;99.90;;;;;;4961757;28;19930;-79
2021/12/18 02:50:56;;;;;;;;;;;3.60;99.90;;;;;;4964665;28;19957;-79
2021/12/18 02:53:24;;;;;;;;;;;3.60;99.90;;;;;;4963945;28;19926;-78
2021/12/18 02:55:56;;;;;;;;;;;3.60;99.90;;;;;;4970872;28;20018;-78
2021/12/18 02:58:25;;;;;;;;;;;3.50;99.90;;;;;;4970343;28;20020;-79
2021/12/18 03:00:59;;;;;;;;;;;3.50;99.90;;;;;;4980511;28;20462;-78
2021/12/18 03:03:30;;;;;;;;;;;3.50;99.90;;;;;;4970143;28;20406;-81
2021/12/18 03:06:11;;;;;;;;;;;3.50;99.90;;;;;;4961500;28;19954;-81
2021/12/18 03:08:47;;;;;;;;;;;3.50;99.90;;;;;;4970932;28;19933;-81
2021/12/18 03:22:49;;;;;;;;;;;3.50;99.90;;;;;;4978776;28;19937;-79
2021/12/18 03:25:20;;;;;;;;;;;3.50;99.90;;;;;;4962910;28;19934;-81
2021/12/18 03:27:48;;;;;;;;;;;3.50;99.90;;;;;;4948777;28;20404;-80
2021/12/18 03:30:16;;;;;;;;;;;3.50;99.90;;;;;;4954039;28;19926;-80
2021/12/18 03:32:45;;;;;;;;;;;3.40;99.90;;;;;;4950633;28;19926;-78
2021/12/18 03:35:14;;;;;;;;;;;3.40;99.90;;;;;;4951095;28;19949;-79
2021/12/18 03:37:42;;;;;;;;;;;3.40;99.90;;;;;;4953325;28;19941;-79
2021/12/18 03:40:11;;;;;;;;;;;3.40;99.90;;;;;;4958199;28;20481;-79
2021/12/18 03:42:39;;;;;;;;;;;3.40;99.90;;;;;;4951794;28;19931;-80
2021/12/18 03:45:10;;;;;;;;;;;3.40;99.90;;;;;;4951786;28;19973;-80
2021/12/18 03:47:40;;;;;;;;;;;3.40;99.90;;;;;;4953172;28;19937;-79
2021/12/18 03:50:12;;;;;;;;;;;3.40;99.90;;;;;;4951248;28;20025;-79
2021/12/18 03:52:40;;;;;;;;;;;3.40;99.90;;;;;;4953261;28;19930;-79
2021/12/18 03:55:16;;;;;;;;;;;3.40;99.90;;;;;;4952777;28;19930;-80
2021/12/18 03:57:46;;;;;;;;;;;3.40;99.90;;;;;;4951080;28;20304;-79
2021/12/18 04:00:14;;;;;;;;;;;3.40;99.90;;;;;;4949477;28;19939;-79
2021/12/18 04:02:41;;;;;;;;;;;3.30;99.90;;;;;;4951257;28;19966;-79
2021/12/18 04:05:09;;;;;;;;;;;3.30;99.90;;;;;;4951333;28;19930;-79
2021/12/18 04:07:42;;;;;;;;;;;3.30;99.90;;;;;;4950402;28;20025;-81
2021/12/18 04:10:11;;;;;;;;;;;3.30;99.90;;;;;;4951664;28;20397;-79
2021/12/18 04:12:41;;;;;;;;;;;3.30;99.90;;;;;;4953738;28;19934;-79
2021/12/18 04:15:09;;;;;;;;;;;3.30;99.90;;;;;;4950801;28;19927;-79
2021/12/18 04:17:41;;;;;;;;;;;3.30;99.90;;;;;;4961601;28;19931;-79
2021/12/18 04:20:16;;;;;;;;;;;3.30;99.90;;;;;;4953153;28;19934;-79
2021/12/18 04:22:43;;;;;;;;;;;3.30;99.90;;;;;;4955828;28;19950;-79
2021/12/18 04:25:11;;;;;;;;;;;3.30;99.90;;;;;;4954390;28;20009;-79
2021/12/18 04:27:43;;;;;;;;;;;3.30;99.90;;;;;;4953474;28;20017;-79
2021/12/18 04:30:13;;;;;;;;;;;3.30;99.90;;;;;;4953488;28;19982;-80
2021/12/18 04:32:43;;;;;;;;;;;3.30;99.90;;;;;;4956601;28;19990;-79
2021/12/18 04:35:13;;;;;;;;;;;3.30;99.90;;;;;;4950748;28;19961;-79
2021/12/18 04:37:40;;;;;;;;;;;3.30;99.90;;;;;;4949840;28;19997;-79
2021/12/18 04:40:07;;;;;;;;;;;3.30;99.90;;;;;;4953918;28;19934;-80
2021/12/18 04:42:36;;;;;;;;;;;3.30;99.90;;;;;;4947534;28;19926;-79
2021/12/18 04:45:04;;;;;;;;;;;3.30;99.90;;;;;;4949743;28;20408;-79
2021/12/18 04:47:34;;;;;;;;;;;3.20;99.90;;;;;;4950967;28;19966;-78
2021/12/18 04:50:01;;;;;;;;;;;3.20;99.90;;;;;;4951450;28;20025;-79
2021/12/18 04:52:31;;;;;;;;;;;3.30;99.90;;;;;;4945666;28;20297;-79
2021/12/18 04:54:58;;;;;;;;;;;3.20;99.90;;;;;;4950066;28;19926;-79
2021/12/18 04:57:31;;;;;;;;;;;3.20;99.90;;;;;;4950878;28;20416;-79
2021/12/18 05:00:00;;;;;;;;;;;3.20;99.90;;;;;;4954022;28;19941;-79
2021/12/18 05:02:36;;;;;;;;;;;3.20;99.90;;;;;;4950155;28;20373;-79
2021/12/18 05:05:04;;;;;;;;;;;3.20;99.90;;;;;;4953221;28;20024;-79
2021/12/18 05:07:37;;;;;;;;;;;3.20;99.90;;;;;;4949538;28;19930;-79
2021/12/18 05:10:05;;;;;;;;;;;3.20;99.90;;;;;;4953468;28;20005;-79
2021/12/18 05:12:48;;;;;;;;;;;3.20;99.90;;;;;;4951115;28;19933;-79
2021/12/18 05:15:19;;;;;;;;;;;3.20;99.90;;;;;;4954319;28;19930;-79
2021/12/18 05:18:06;;;;;;;;;;;3.20;99.90;;;;;;5079242;27;19916;-80
2021/12/18 05:20:41;;;;;;;;;;;3.10;99.90;;;;;;5082794;28;20094;-79
2021/12/18 05:23:10;;;;;;;;;;;3.20;99.90;;;;;;5087089;28;19931;-79
2021/12/18 05:25:40;;;;;;;;;;;3.20;99.90;;;;;;5084848;28;19978;-79
2021/12/18 05:28:15;;;;;;;;;;;3.20;99.90;;;;;;5078088;28;19967;-79
2021/12/18 05:30:42;;;;;;;;;;;3.20;99.90;;;;;;5083856;28;19939;-80
2021/12/18 05:33:13;;;;;;;;;;;3.20;99.90;;;;;;5084210;28;19924;-79
2021/12/18 05:35:40;;;;;;;;;;;3.20;99.90;;;;;;5084876;28;19931;-80
2021/12/18 05:38:10;;;;;;;;;;;3.10;99.90;;;;;;5077157;28;19947;-79
2021/12/18 05:40:40;;;;;;;;;;;3.10;99.90;;;;;;5084323;28;20011;-79
2021/12/18 05:43:08;;;;;;;;;;;3.10;99.90;;;;;;5069426;28;19936;-81
2021/12/18 05:45:36;;;;;;;;;;;3.10;99.90;;;;;;5081300;28;20360;-79
2021/12/18 05:48:03;;;;;;;;;;;3.10;99.90;;;;;;5081985;28;19932;-79
2021/12/18 05:50:35;;;;;;;;;;;3.10;99.90;;;;;;5076294;28;19925;-80
2021/12/18 05:53:07;;;;;;;;;;;3.10;99.90;;;;;;5076034;28;19932;-80
2021/12/18 05:55:34;;;;;;;;;;;3.10;99.90;;;;;;5083136;28;19925;-80
2021/12/18 05:58:07;;;;;;;;;;;3.10;99.90;;;;;;5081922;28;19924;-79
2021/12/18 06:00:39;;;;;;;;;;;3.10;99.90;;;;;;5078109;28;19924;-80
2021/12/18 06:03:06;;;;;;;;;;;3.10;99.90;;;;;;5096870;28;19946;-79
2021/12/18 06:05:35;;;;;;;;;;;3.10;99.90;;;;;;5081703;28;19924;-79
2021/12/18 06:08:10;;;;;;;;;;;3.10;99.90;;;;;;5079805;28;20459;-80
2021/12/18 06:10:37;;;;;;;;;;;3.10;99.90;;;;;;5083831;28;19924;-80
2021/12/18 06:13:07;;;;;;;;;;;3.00;99.90;;;;;;5076545;28;19928;-79
2021/12/18 06:15:34;;;;;;;;;;;3.10;99.90;;;;;;5080897;28;19924;-79
2021/12/18 06:18:04;;;;;;;;;;;3.10;99.90;;;;;;5078995;28;20318;-79
2021/12/18 06:20:31;;;;;;;;;;;3.00;99.90;;;;;;5083963;28;19925;-79
2021/12/18 06:23:08;;;;;;;;;;;3.10;99.90;;;;;;5079055;28;20421;-79
2021/12/18 06:25:35;;;;;;;;;;;3.00;99.90;;;;;;5082849;28;20023;-79
2021/12/18 06:28:02;;;;;;;;;;;3.00;99.90;;;;;;5069739;28;19924;-80
2021/12/18 06:30:31;;;;;;;;;;;3.00;99.90;;;;;;5069210;28;19943;-80
2021/12/18 06:32:58;;;;;;;;;;;3.00;99.90;;;;;;5063354;28;19924;-79
2021/12/18 06:35:30;;;;;;;;;;;3.00;99.90;;;;;;5068767;28;19924;-79
2021/12/18 06:37:57;;;;;;;;;;;3.00;99.90;;;;;;5062309;28;19924;-80
2021/12/18 06:40:26;;;;;;;;;;;3.00;99.90;;;;;;5068356;28;20398;-79
2021/12/18 06:42:55;;;;;;;;;;;3.00;99.90;;;;;;5067220;28;20390;-79
2021/12/18 06:45:31;;;;;;;;;;;3.00;99.90;;;;;;5061940;28;20039;-80
2021/12/18 06:47:58;;;;;;;;;;;3.00;99.90;;;;;;5067209;28;19932;-79
2021/12/18 06:50:28;;;;;;;;;;;3.00;99.90;;;;;;5064828;28;20011;-80
2021/12/18 06:53:05;;;;;;;;;;;3.00;99.90;;;;;;5064462;28;19932;-79
2021/12/18 06:55:38;;;;;;;;;;;3.00;99.90;;;;;;5064974;28;19924;-79
2021/12/18 06:58:10;;;;;;;;;;;3.00;99.90;;;;;;5064132;28;20312;-79
2021/12/18 07:00:38;;;;;;;;;;;3.00;99.90;;;;;;5068112;28;19994;-79
2021/12/18 07:03:07;;;;;;;;;;;2.90;99.90;;;;;;5068859;28;19924;-79
2021/12/18 07:05:34;;;;;;;;;;;3.00;99.90;;;;;;5071491;28;20305;-80
2021/12/18 07:08:04;;;;;;;;;;;3.00;99.90;;;;;;5067669;28;19924;-80
2021/12/18 07:10:36;;;;;;;;;;;2.90;99.90;;;;;;5066932;28;19963;-80
2021/12/18 07:13:09;;;;;;;;;;;2.90;99.90;;;;;;5064577;28;20413;-79
2021/12/18 07:15:36;;;;;;;;;;;2.90;99.90;;;;;;5064317;28;20635;-79
2021/12/18 07:18:06;;;;;;;;;;;2.90;99.90;;;;;;5065284;28;20015;-80
2021/12/18 07:20:42;;;;;;;;;;;2.90;99.90;;;;;;5069001;28;19933;-79
2021/12/18 07:23:12;;;;;;;;;;;2.90;99.90;;;;;;5063040;28;19924;-80
2021/12/18 07:25:41;;;;;;;;;;;3.00;99.90;;;;;;5065960;28;20302;-79
2021/12/18 07:28:08;;;;;;;;;;;2.90;99.90;;;;;;5065525;28;20329;-81
2021/12/18 07:30:38;;;;;;;;;;;2.90;99.90;;;;;;5052742;28;19931;-80
2021/12/18 07:33:10;;;;;;;;;;;2.90;99.90;;;;;;5065185;28;19931;-79
2021/12/18 07:35:38;;;;;;;;;;;2.90;99.90;;;;;;5065691;28;19954;-79
2021/12/18 07:38:06;;;;;;;;;;;2.90;99.90;;;;;;5062020;28;19979;-80
2021/12/18 07:40:33;;;;;;;;;;;2.90;99.90;;;;;;5066532;28;19924;-80
2021/12/18 07:43:01;;;;;;;;;;;2.90;99.90;;;;;;5058669;28;19948;-79
2021/12/18 07:45:28;;;;;;;;;;;2.80;99.90;;;;;;5062443;28;19951;-79
2021/12/18 07:47:59;;;;;;;;;;;2.90;99.90;;;;;;5067283;28;20292;-80
2021/12/18 07:50:26;;;;;;;;;;;2.90;99.90;;;;;;5061194;28;20103;-80
2021/12/18 07:52:53;;;;;;;;;;;2.90;99.90;;;;;;5060544;28;19963;-80
2021/12/18 07:55:20;;;;;;;;;;;2.90;99.90;;;;;;5054838;28;20384;-79
2021/12/18 07:57:47;;;;;;;;;;;2.90;99.90;;;;;;5059775;28;19924;-79
2021/12/18 08:00:17;;;;;;;;;;;2.80;99.90;;;;;;5061349;28;19924;-80
2021/12/18 08:02:46;;;;;;;;;;;2.90;99.90;;;;;;5054605;28;19928;-80
2021/12/18 08:05:14;;;;;;;;;;;2.90;99.90;;;;;;5058953;28;19940;-79
2021/12/18 08:07:41;;;;;;;;;;;2.80;99.90;;;;;;5052074;28;19932;-79
2021/12/18 08:10:11;;;;;;;;;;;2.90;99.90;;;;;;5062242;28;20011;-80
2021/12/18 08:12:38;;;;;;;;;;;2.80;99.90;;;;;;5065209;28;20417;-80
2021/12/18 08:15:07;;;;;;;;;;;2.80;99.90;;;;;;5056609;28;20132;-80
2021/12/18 08:17:36;;;;;;;;;;;2.80;99.90;;;;;;5058413;28;19929;-78
2021/12/18 08:20:08;;;;;;;;;;;2.80;99.90;;;;;;5075465;28;19932;-79
2021/12/18 08:22:37;;;;;;;;;;;2.80;99.90;;;;;;5061752;28;19925;-79
2021/12/18 08:25:05;;;;;;;;;;;2.80;99.90;;;;;;5063039;28;19981;-79
2021/12/18 08:27:32;;;;;;;;;;;2.80;99.90;;;;;;5058197;28;19935;-80
2021/12/18 08:30:11;;;;;;;;;;;2.80;99.90;;;;;;5059109;28;19925;-79
2021/12/18 08:32:40;;;;;;;;;;;2.80;99.90;;;;;;5060739;28;19924;-79
2021/12/18 08:35:08;;;;;;;;;;;2.80;99.90;;;;;;5060563;28;19932;-80
2021/12/18 08:37:35;;;;;;;;;;;2.80;99.90;;;;;;5058217;28;20045;-80
2021/12/18 08:40:02;;;;;;;;;;;2.80;99.90;;;;;;5063268;28;20058;-79
2021/12/18 08:42:29;;;;;;;;;;;2.80;99.90;;;;;;5061138;28;19947;-79
2021/12/18 08:44:56;;;;;;;;;;;2.80;99.90;;;;;;5060733;28;20298;-79
2021/12/18 08:47:23;;;;;;;;;;;2.80;99.90;;;;;;5059200;28;19924;-79
2021/12/18 08:49:52;;;;;;;;;;;2.80;99.90;;;;;;5060948;28;19932;-79
2021/12/18 08:52:19;;;;;;;;;;;2.80;99.90;;;;;;5051389;28;19982;-81
2021/12/18 08:54:46;;;;;;;;;;;2.80;99.90;;;;;;5060795;28;19924;-77
2021/12/18 08:57:13;;;;;;;;;;;2.80;99.90;;;;;;5060644;28;19932;-78
2021/12/18 08:59:40;;;;;;;;;;;2.80;99.90;;;;;;5059560;28;19936;-79
2021/12/18 09:02:07;;;;;;;;;;;2.80;99.90;;;;;;5058021;28;20390;-78
2021/12/18 09:04:34;;;;;;;;;;;2.80;99.90;;;;;;5063460;28;19928;-78
2021/12/18 09:07:02;;;;;;;;;;;2.80;99.90;;;;;;5064711;28;19928;-79
2021/12/18 09:09:29;;;;;;;;;;;2.70;99.90;;;;;;5056089;28;19925;-79
2021/12/18 09:11:56;;;;;;;;;;;2.70;99.90;;;;;;5059075;28;19932;-78
2021/12/18 09:14:23;;;;;;;;;;;2.70;99.90;;;;;;5051538;28;20035;-81
2021/12/18 09:16:52;;;;;;;;;;;2.70;99.90;;;;;;5055119;28;19928;-79
2021/12/18 09:19:19;;;;;;;;;;;2.70;99.90;;;;;;5052653;28;19931;-80
2021/12/18 09:21:46;;;;;;;;;;;2.70;99.90;;;;;;5061262;28;19978;-80
2021/12/18 09:24:14;;;;;;;;;;;2.70;99.90;;;;;;5066887;28;19929;-79
2021/12/18 09:26:41;;;;;;;;;;;2.70;99.90;;;;;;5068981;28;19928;-79
2021/12/18 09:29:08;;;;;;;;;;;2.70;99.90;;;;;;5064065;28;19952;-80
2021/12/18 09:31:35;;;;;;;;;;;2.70;99.90;;;;;;5068112;28;19932;-79
2021/12/18 09:34:02;;;;;;;;;;;2.70;99.90;;;;;;5066178;28;19931;-80
2021/12/18 09:36:29;;;;;;;;;;;2.70;99.90;;;;;;5064938;28;19925;-78
2021/12/18 09:38:56;;;;;;;;;;;2.70;99.90;;;;;;5058154;28;19925;-80
2021/12/18 09:41:24;;;;;;;;;;;2.70;99.90;;;;;;5058810;28;19929;-79
2021/12/18 09:43:51;;;;;;;;;;;2.70;99.90;;;;;;5063937;28;19925;-78
2021/12/18 09:46:18;;;;;;;;;;;2.70;99.90;;;;;;5061129;28;19928;-79
2021/12/18 09:48:46;;;;;;;;;;;2.70;99.90;;;;;;5081918;28;19964;-78
2021/12/18 09:51:22;;;;;;;;;;;2.80;99.90;;;;;;5068199;28;19935;-78
2021/12/18 09:53:50;;;;;;;;;;;2.70;99.90;;;;;;5069376;28;19925;-79
2021/12/18 09:56:18;;;;;;;;;;;2.70;99.90;;;;;;5060030;28;20058;-79
2021/12/18 09:58:47;;;;;;;;;;;2.70;99.90;;;;;;5071778;28;19924;-78
2021/12/18 10:01:14;;;;;;;;;;;2.70;99.90;;;;;;5067008;28;20306;-78
2021/12/18 10:03:45;;;;;;;;;;;2.70;99.90;;;;;;5064120;28;19967;-80
2021/12/18 10:06:33;;;;;;;;;;;2.70;99.90;;;;;;5062480;28;19929;-78
2021/12/18 10:09:00;;;;;;;;;;;2.70;99.90;;;;;;5061748;28;19928;-78
2021/12/18 10:11:27;;;;;;;;;;;2.70;99.90;;;;;;5070743;28;19929;-79
2021/12/18 10:13:56;;;;;;;;;;;2.70;99.90;;;;;;5070431;28;19928;-78
2021/12/18 10:16:24;;;;;;;;;;;2.70;99.90;;;;;;5062041;28;19950;-81
2021/12/18 10:18:51;;;;;;;;;;;2.70;99.90;;;;;;5065473;28;19924;-80
2021/12/18 10:21:19;;;;;;;;;;;2.70;99.90;;;;;;5068856;28;19925;-79
2021/12/18 10:23:47;;;;;;;;;;;2.70;99.90;;;;;;5066943;28;19925;-79
2021/12/18 10:26:35;;;;;;;;;;;2.70;99.90;;;;;;5070986;28;19939;-79
2021/12/18 10:29:04;;;;;;;;;;;2.70;99.90;;;;;;5064799;28;19924;-78
2021/12/18 10:31:38;;;;;;;;;;;2.70;99.90;;;;;;5071200;28;19939;-79
2021/12/18 10:34:13;;;;;;;;;;;2.70;99.90;;;;;;5063258;28;20160;-80
2021/12/18 10:36:40;;;;;;;;;;;2.70;99.90;;;;;;5068651;28;20287;-79
2021/12/18 10:39:07;;;;;;;;;;;2.70;99.90;;;;;;5067489;28;19931;-80
2021/12/18 10:41:35;;;;;;;;;;;2.70;99.90;;;;;;5070225;28;19925;-79
2021/12/18 10:44:03;;;;;;;;;;;2.70;99.90;;;;;;5062283;28;20018;-79
2021/12/18 10:46:32;;;;;;;;;;;2.70;99.90;;;;;;5068201;28;19932;-80
2021/12/18 10:49:00;;;;;;;;;;;2.70;99.90;;;;;;5061764;28;19932;-78
2021/12/18 10:51:29;;;;;;;;;;;2.70;99.90;;;;;;5056904;28;20008;-79
2021/12/18 10:53:59;;;;;;;;;;;2.70;99.90;;;;;;5063020;28;19932;-78
2021/12/18 10:56:32;;;;;;;;;;;2.70;99.90;;;;;;5063038;28;19924;-79
2021/12/18 10:58:59;;;;;;;;;;;2.70;99.90;;;;;;5064993;28;20020;-79
2021/12/18 11:01:26;;;;;;;;;;;2.70;99.90;;;;;;5062130;28;19925;-81
2021/12/18 11:03:54;;;;;;;;;;;2.70;99.90;;;;;;5066414;28;19925;-79
2021/12/18 11:06:22;;;;;;;;;;;2.70;99.90;;;;;;5064648;28;20011;-79
2021/12/18 11:08:52;;;;;;;;;;;2.70;99.90;;;;;;5060077;28;19995;-79
2021/12/18 11:14:03;;;;;;;;;;;2.70;99.90;;;;;;5068541;28;20493;-79
2021/12/18 11:16:35;;;;;;;;;;;2.70;99.90;;;;;;5071316;28;19924;-79
2021/12/18 11:19:04;;;;;;;;;;;2.70;99.90;;;;;;5066356;28;20398;-79
2021/12/18 11:21:31;;;;;;;;;;;2.70;99.90;;;;;;5067702;28;19996;-81
2021/12/18 11:24:01;;;;;;;;;;;2.70;99.90;;;;;;5067815;28;19924;-79
2021/12/18 11:26:33;;;;;;;;;;;2.70;99.90;;;;;;5069150;28;19974;-79
2021/12/18 11:29:02;;;;;;;;;;;2.70;99.90;;;;;;5071559;28;20023;-79
2021/12/18 11:31:30;;;;;;;;;;;2.70;99.90;;;;;;5069901;28;19933;-79
2021/12/18 11:33:58;;;;;;;;;;;2.70;99.90;;;;;;5071137;28;19925;-79
2021/12/18 11:36:26;;;;;;;;;;;2.70;99.90;;;;;;5069587;28;19925;-79
2021/12/18 11:38:54;;;;;;;;;;;2.70;99.90;;;;;;5066285;28;19931;-80
2021/12/18 11:41:21;;;;;;;;;;;2.70;99.90;;;;;;5061088;28;19940;-79
2021/12/18 11:43:48;;;;;;;;;;;2.70;99.90;;;;;;5062777;28;19932;-79
2021/12/18 11:46:33;;;;;;;;;;;2.70;99.90;;;;;;5060166;28;19932;-81
2021/12/18 11:49:01;;;;;;;;;;;2.70;99.90;;;;;;5062891;28;19929;-80
2021/12/18 11:51:29;;;;;;;;;;;2.70;99.90;;;;;;5068919;28;19946;-80
2021/12/18 11:53:56;;;;;;;;;;;2.70;99.90;;;;;;5068277;28;19924;-78
2021/12/18 11:56:24;;;;;;;;;;;2.70;99.90;;;;;;5069653;28;19924;-79
2021/12/18 11:58:52;;;;;;;;;;;2.70;99.90;;;;;;5067760;28;19924;-78
2021/12/18 12:01:20;;;;;;;;;;;2.80;99.90;;;;;;5070174;28;19929;-79
2021/12/18 12:03:55;;;;;;;;;;;2.70;99.90;;;;;;5066521;28;20413;-81
2021/12/18 12:06:25;;;;;;;;;;;2.70;99.90;;;;;;5060247;28;19940;-80
2021/12/18 12:09:13;;;;;;;;;;;2.70;99.90;;;;;;5063092;28;19931;-78
2021/12/18 12:11:50;;;;;;;;;;;2.80;99.90;;;;;;5059938;28;20047;-79
2021/12/18 12:14:19;;;;;;;;;;;2.70;99.90;;;;;;5064480;28;19935;-80
2021/12/18 12:17:02;;;;;;;;;;;2.70;99.90;;;;;;5061241;28;19936;-79
2021/12/18 12:19:42;;;;;;;;;;;2.70;99.90;;;;;;5061425;28;20000;-79
2021/12/18 12:22:12;;;;;;;;;;;2.70;99.90;;;;;;5075995;28;20023;-78
2021/12/18 12:24:54;;;;;;;;;;;2.70;99.90;;;;;;5068621;28;19924;-79
2021/12/18 12:27:28;;;;;;;;;;;2.70;99.90;;;;;;5057080;28;20400;-79
2021/12/18 12:29:56;;;;;;;;;;;2.70;99.90;;;;;;5064978;28;19931;-79
2021/12/18 12:32:23;;;;;;;;;;;2.70;99.90;;;;;;5064710;28;19936;-79
2021/12/18 12:34:58;;;;;;;;;;;2.70;99.90;;;;;;5066411;28;19935;-79
2021/12/18 12:37:34;;;;;;;;;;;2.70;99.90;;;;;;5065951;28;19932;-80
2021/12/18 12:40:06;;;;;;;;;;;2.70;99.90;;;;;;5055276;28;20012;-79
2021/12/18 12:42:33;;;;;;;;;;;2.70;99.90;;;;;;5062861;28;19940;-80
2021/12/18 12:45:03;;;;;;;;;;;2.70;99.90;;;;;;5060671;28;20007;-79
2021/12/18 12:47:31;;;;;;;;;;;2.80;99.90;;;;;;5068103;28;19925;-79
2021/12/18 12:49:59;;;;;;;;;;;2.70;99.90;;;;;;5065634;28;19936;-79
2021/12/18 12:52:27;;;;;;;;;;;2.70;99.90;;;;;;5058954;28;19929;-80
2021/12/18 12:55:02;;;;;;;;;;;2.70;99.90;;;;;;5068860;28;20397;-77
2021/12/18 12:57:42;;;;;;;;;;;2.80;99.90;;;;;;5062855;28;19939;-76
2021/12/18 13:00:27;;;;;;;;;;;2.80;99.90;;;;;;5066573;28;20011;-76
2021/12/18 13:02:56;;;;;;;;;;;2.80;99.90;;;;;;5057211;28;20391;-76
2021/12/18 13:05:24;;;;;;;;;;;2.80;99.90;;;;;;5067709;28;19955;-76
2021/12/18 13:07:52;;;;;;;;;;;2.80;99.90;;;;;;5055143;28;20602;-78
2021/12/18 13:10:20;;;;;;;;;;;2.80;99.90;;;;;;5062074;28;19925;-77
2021/12/18 13:12:54;;;;;;;;;;;2.80;99.90;;;;;;5060757;28;19928;-78
2021/12/18 13:15:21;;;;;;;;;;;2.80;99.90;;;;;;5068216;28;20374;-77
2021/12/18 13:17:49;;;;;;;;;;;2.80;99.90;;;;;;5062360;28;19925;-77
2021/12/18 13:20:15;;;;;;;;;;;2.80;99.90;;;;;;5064482;28;20398;-77
2021/12/18 13:22:53;;;;;;;;;;;2.80;99.90;;;;;;5065672;28;19924;-78
2021/12/18 13:25:20;;;;;;;;;;;2.80;99.90;;;;;;5069714;28;19924;-78
2021/12/18 13:30:42;;;;;;;;;;;2.80;99.90;;;;;;5118186;27;20390;-78
2021/12/18 13:33:09;;;;;;;;;;;2.80;99.90;;;;;;5120945;28;20005;-78
2021/12/18 13:35:37;;;;;;;;;;;2.80;99.90;;;;;;5105356;28;20027;-76
2021/12/18 13:38:05;;;;;;;;;;;2.80;99.90;;;;;;5105032;28;19924;-78
2021/12/18 13:40:34;;;;;;;;;;;2.80;99.90;;;;;;5105493;28;19974;-77
2021/12/18 13:43:05;;;;;;;;;;;2.80;99.90;;;;;;5103973;28;19928;-77
2021/12/18 13:45:32;;;;;;;;;;;2.80;99.90;;;;;;5118968;28;19949;-77
2021/12/18 13:48:05;;;;;;;;;;;2.80;99.90;;;;;;5099789;28;20381;-78
2021/12/18 13:50:32;;;;;;;;;;;2.80;99.90;;;;;;5103029;28;19930;-77
2021/12/18 13:53:02;;;;;;;;;;;2.80;99.90;;;;;;5100595;28;19924;-77
2021/12/18 13:55:31;;;;;;;;;;;2.80;99.90;;;;;;5100860;28;19928;-77
2021/12/18 13:58:08;;;;;;;;;;;2.80;99.90;;;;;;5099624;28;20389;-76
2021/12/18 14:00:49;;;;;;;;;;;2.80;99.90;;;;;;5100867;28;19944;-77
2021/12/18 14:03:21;;;;;;;;;;;2.80;99.90;;;;;;5098516;28;19924;-77
2021/12/18 14:05:48;;;;;;;;;;;2.80;99.90;;;;;;5105425;28;19969;-76
2021/12/18 14:08:16;;;;;;;;;;;2.80;99.90;;;;;;5107085;28;20442;-77
2021/12/18 14:10:44;;;;;;;;;;;2.80;99.90;;;;;;5102705;28;19960;-77
2021/12/18 14:13:11;;;;;;;;;;;2.80;99.90;;;;;;5102914;28;20009;-76
2021/12/18 14:15:39;;;;;;;;;;;2.80;99.90;;;;;;5099824;28;19932;-76
2021/12/18 14:18:20;;;;;;;;;;;2.80;99.90;;;;;;5102306;28;19969;-78
2021/12/18 14:20:49;;;;;;;;;;;2.80;99.90;;;;;;5104819;28;20313;-76
2021/12/18 14:23:16;;;;;;;;;;;2.80;99.90;;;;;;5104145;28;19924;-77
2021/12/18 14:25:43;;;;;;;;;;;2.80;99.90;;;;;;5104578;28;19928;-78
2021/12/18 14:28:18;;;;;;;;;;;2.80;99.90;;;;;;5099953;28;20018;-77
2021/12/18 14:30:46;;;;;;;;;;;2.80;99.90;;;;;;5099599;28;19928;-77
2021/12/18 14:33:14;;;;;;;;;;;2.80;99.90;;;;;;5106543;28;20401;-77
2021/12/18 14:35:49;;;;;;;;;;;2.80;99.90;;;;;;5095493;28;20222;-78
2021/12/18 14:38:16;;;;;;;;;;;2.80;99.90;;;;;;5103874;28;20014;-78
2021/12/18 14:40:43;;;;;;;;;;;2.80;99.90;;;;;;5087887;28;19929;-77
2021/12/18 14:43:13;;;;;;;;;;;2.80;99.90;;;;;;5084710;28;20398;-77
2021/12/18 14:45:40;;;;;;;;;;;2.80;99.90;;;;;;5087093;28;19928;-77
2021/12/18 14:48:08;;;;;;;;;;;2.80;99.90;;;;;;5091540;28;19924;-77
2021/12/18 14:50:36;;;;;;;;;;;2.80;99.90;;;;;;5083424;28;20468;-77
2021/12/18 14:53:09;;;;;;;;;;;2.80;99.90;;;;;;5090885;28;19928;-77
2021/12/18 14:55:37;;;;;;;;;;;2.80;99.90;;;;;;5087514;28;19928;-77
2021/12/18 14:58:05;;;;;;;;;;;2.80;99.90;;;;;;5084169;28;19934;-78
2021/12/18 15:00:34;;;;;;;;;;;2.80;99.90;;;;;;5087745;28;20309;-78
2021/12/18 15:03:03;;;;;;;;;;;2.80;99.90;;;;;;5086887;28;20018;-77
2021/12/18 15:05:52;;;;;;;;;;;2.80;99.90;;;;;;5088920;28;19936;-77
2021/12/18 15:08:22;;;;;;;;;;;2.80;99.90;;;;;;5087576;28;19973;-76
2021/12/18 15:10:50;;;;;;;;;;;2.80;99.90;;;;;;5088219;28;19935;-76
2021/12/18 15:13:18;;;;;;;;;;;2.80;99.90;;;;;;5080873;28;19932;-77
2021/12/18 15:15:45;;;;;;;;;;;2.80;99.90;;;;;;5091383;28;19928;-77
2021/12/18 15:18:12;;;;;;;;;;;2.80;99.90;;;;;;5184030;22;19932;-80
2021/12/18 15:20:40;;;;;;;;;;;2.80;99.90;;;;;;5092407;28;20016;-80